createdAt,value
2023-04-27T00:00:49.483Z,1009.19
2023-04-27T00:01:43.114Z,1009.19
2023-04-27T00:02:43.251Z,1009.18
2023-04-27T00:03:43.242Z,1009.14
2023-04-27T00:04:43.276Z,1009.16
2023-04-27T00:05:43.235Z,1009.15
2023-04-27T00:06:43.049Z,1009.18
2023-04-27T00:07:43.099Z,1009.18
2023-04-27T00:08:43.053Z,1009.17
2023-04-27T00:09:43.051Z,1009.16
2023-04-27T00:10:43.062Z,1009.16
2023-04-27T00:11:43.061Z,1009.17
2023-04-27T00:12:43.082Z,1009.2
2023-04-27T00:13:43.050Z,1009.16
2023-04-27T00:14:43.057Z,1009.19
2023-04-27T00:15:43.051Z,1009.21
2023-04-27T00:16:43.179Z,1009.23
2023-04-27T00:17:43.127Z,1009.23
2023-04-27T00:18:43.996Z,1009.23
2023-04-27T00:19:47.294Z,1009.24
2023-04-27T00:20:50.287Z,1009.26
2023-04-27T00:21:49.628Z,1009.27
2023-04-27T00:22:43.153Z,1009.32
2023-04-27T00:23:43.238Z,1009.27
2023-04-27T00:24:43.068Z,1009.26
2023-04-27T00:25:43.086Z,1009.25
2023-04-27T00:26:43.128Z,1009.26
2023-04-27T00:27:43.092Z,1009.24
2023-04-27T00:28:43.059Z,1009.24
2023-04-27T00:29:43.082Z,1009.27
2023-04-27T00:30:43.062Z,1009.25
2023-04-27T00:31:43.097Z,1009.26
2023-04-27T00:32:43.068Z,1009.28
2023-04-27T00:33:43.066Z,1009.26
2023-04-27T00:34:43.076Z,1009.25
2023-04-27T00:35:43.056Z,1009.27
2023-04-27T00:36:43.083Z,1009.25
2023-04-27T00:37:43.062Z,1009.27
2023-04-27T00:38:43.070Z,1009.24
2023-04-27T00:39:44.046Z,1009.24
2023-04-27T00:40:47.383Z,1009.26
2023-04-27T00:41:50.364Z,1009.25
2023-04-27T00:42:49.716Z,1009.29
2023-04-27T00:43:43.060Z,1009.29
2023-04-27T00:44:43.107Z,1009.31
2023-04-27T00:45:43.113Z,1009.28
2023-04-27T00:46:43.078Z,1009.31
2023-04-27T00:47:43.087Z,1009.33
2023-04-27T00:48:43.068Z,1009.33
2023-04-27T00:49:43.061Z,1009.37
2023-04-27T00:50:43.106Z,1009.36
2023-04-27T00:51:43.069Z,1009.39
2023-04-27T00:52:43.067Z,1009.41
2023-04-27T00:53:43.100Z,1009.35
2023-04-27T00:54:43.182Z,1009.39
2023-04-27T00:55:43.058Z,1009.37
2023-04-27T00:56:43.076Z,1009.35
2023-04-27T00:57:43.075Z,1009.38
2023-04-27T00:58:43.062Z,1009.41
2023-04-27T00:59:43.613Z,1009.45
2023-04-27T01:00:44.102Z,1009.44
2023-04-27T01:01:47.611Z,1009.47
2023-04-27T01:02:50.582Z,1009.5
2023-04-27T01:03:49.954Z,1009.47
2023-04-27T01:04:43.304Z,1009.54
2023-04-27T01:05:43.067Z,1009.58
2023-04-27T01:06:43.054Z,1009.64
2023-04-27T01:07:43.075Z,1009.61
2023-04-27T01:08:43.057Z,1009.62
2023-04-27T01:09:43.050Z,1009.58
2023-04-27T01:10:43.056Z,1009.65
2023-04-27T01:11:43.093Z,1009.65
2023-04-27T01:12:43.074Z,1009.61
2023-04-27T01:13:43.055Z,1009.67
2023-04-27T01:14:43.182Z,1009.67
2023-04-27T01:15:43.269Z,1009.7
2023-04-27T01:16:43.282Z,1009.67
2023-04-27T01:17:43.081Z,1009.65
2023-04-27T01:18:43.064Z,1009.69
2023-04-27T01:19:43.059Z,1009.71
2023-04-27T01:20:43.055Z,1009.78
2023-04-27T01:21:44.206Z,1009.76
2023-04-27T01:22:47.580Z,1009.73
2023-04-27T01:23:50.617Z,1009.74
2023-04-27T01:24:49.872Z,1009.73
2023-04-27T01:25:43.083Z,1009.73
2023-04-27T01:26:43.056Z,1009.7
2023-04-27T01:27:43.049Z,1009.67
2023-04-27T01:28:43.049Z,1009.7
2023-04-27T01:29:43.050Z,1009.71
2023-04-27T01:30:43.075Z,1009.7
2023-04-27T01:31:43.141Z,1009.7
2023-04-27T01:32:43.083Z,1009.74
2023-04-27T01:33:43.064Z,1009.75
2023-04-27T01:34:43.050Z,1009.75
2023-04-27T01:35:43.061Z,1009.75
2023-04-27T01:36:43.065Z,1009.76
2023-04-27T01:37:43.050Z,1009.79
2023-04-27T01:38:43.058Z,1009.82
2023-04-27T01:39:43.124Z,1009.79
2023-04-27T01:40:43.050Z,1009.83
2023-04-27T01:41:43.050Z,1009.84
2023-04-27T01:42:44.320Z,1009.84
2023-04-27T01:43:47.695Z,1009.82
2023-04-27T01:44:50.648Z,1009.82
2023-04-27T01:45:49.989Z,1009.87
2023-04-27T01:46:43.138Z,1009.87
2023-04-27T01:47:43.097Z,1009.86
2023-04-27T01:48:43.058Z,1009.83
2023-04-27T01:49:43.054Z,1009.87
2023-04-27T01:50:43.060Z,1009.87
2023-04-27T01:51:43.092Z,1009.85
2023-04-27T01:52:43.060Z,1009.87
2023-04-27T01:53:43.068Z,1009.87
2023-04-27T01:54:43.069Z,1009.89
2023-04-27T01:55:43.060Z,1009.87
2023-04-27T01:56:43.101Z,1009.89
2023-04-27T01:57:43.105Z,1009.93
2023-04-27T01:58:43.067Z,1009.97
2023-04-27T01:59:43.058Z,1009.95
2023-04-27T02:00:43.169Z,1009.96
2023-04-27T02:01:43.115Z,1009.99
2023-04-27T02:02:43.338Z,1010.02
2023-04-27T02:03:44.588Z,1010.04
2023-04-27T02:04:47.918Z,1010.08
2023-04-27T02:05:49.193Z,1010.03
2023-04-27T02:06:50.155Z,1010.06
2023-04-27T02:07:43.059Z,1010.07
2023-04-27T02:08:43.058Z,1010.04
2023-04-27T02:09:43.081Z,1010.13
2023-04-27T02:10:43.059Z,1010.1
2023-04-27T02:11:43.079Z,1010.09
2023-04-27T02:12:43.074Z,1010.08
2023-04-27T02:13:43.053Z,1010.11
2023-04-27T02:14:43.053Z,1010.09
2023-04-27T02:15:43.075Z,1010.13
2023-04-27T02:16:43.105Z,1010.13
2023-04-27T02:17:43.083Z,1010.14
2023-04-27T02:18:43.068Z,1010.1
2023-04-27T02:19:43.054Z,1010.11
2023-04-27T02:20:43.055Z,1010.12
2023-04-27T02:21:43.052Z,1010.15
2023-04-27T02:22:43.061Z,1010.15
2023-04-27T02:23:43.053Z,1010.15
2023-04-27T02:24:44.463Z,1010.12
2023-04-27T02:25:47.904Z,1010.16
2023-04-27T02:26:49.248Z,1010.13
2023-04-27T02:28:43.047Z,1010.15
2023-04-27T02:29:43.064Z,1010.16
2023-04-27T02:30:43.072Z,1010.14
2023-04-27T02:31:43.128Z,1010.13
2023-04-27T02:32:43.060Z,1010.13
2023-04-27T02:33:43.067Z,1010.11
2023-04-27T02:34:43.058Z,1010.14
2023-04-27T02:35:43.086Z,1010.17
2023-04-27T02:36:43.055Z,1010.17
2023-04-27T02:37:43.058Z,1010.19
2023-04-27T02:38:43.362Z,1010.15
2023-04-27T02:39:43.056Z,1010.14
2023-04-27T02:40:43.084Z,1010.19
2023-04-27T02:41:43.060Z,1010.16
2023-04-27T02:42:43.064Z,1010.18
2023-04-27T02:43:43.051Z,1010.19
2023-04-27T02:44:43.061Z,1010.17
2023-04-27T02:45:43.076Z,1010.18
2023-04-27T02:46:44.742Z,1010.2
2023-04-27T02:47:48.141Z,1010.18
2023-04-27T02:48:50.319Z,1010.17
2023-04-27T02:50:43.096Z,1010.15
2023-04-27T02:51:43.050Z,1010.14
2023-04-27T02:52:43.056Z,1010.12
2023-04-27T02:53:43.117Z,1010.11
2023-04-27T02:54:43.061Z,1010.13
2023-04-27T02:55:43.084Z,1010.06
2023-04-27T02:56:43.054Z,1010.05
2023-04-27T02:57:43.063Z,1010.06
2023-04-27T02:58:43.062Z,1010.05
2023-04-27T02:59:43.207Z,1010.04
2023-04-27T03:00:43.105Z,1010.02
2023-04-27T03:01:43.149Z,1010
2023-04-27T03:02:43.177Z,1010
2023-04-27T03:03:43.311Z,1009.96
2023-04-27T03:04:43.128Z,1009.95
2023-04-27T03:05:43.059Z,1009.94
2023-04-27T03:06:43.059Z,1009.93
2023-04-27T03:07:44.779Z,1009.96
2023-04-27T03:08:48.171Z,1009.95
2023-04-27T03:09:50.359Z,1010
2023-04-27T03:11:43.114Z,1010.01
2023-04-27T03:12:43.064Z,1010
2023-04-27T03:13:43.058Z,1010
2023-04-27T03:14:43.157Z,1009.97
2023-04-27T03:15:43.118Z,1009.99
2023-04-27T03:16:43.065Z,1010
2023-04-27T03:17:43.059Z,1010.02
2023-04-27T03:18:43.070Z,1010
2023-04-27T03:19:43.064Z,1009.99
2023-04-27T03:20:43.100Z,1009.98
2023-04-27T03:21:43.057Z,1010
2023-04-27T03:22:43.059Z,1010.01
2023-04-27T03:23:43.047Z,1010.02
2023-04-27T03:24:43.056Z,1010.05
2023-04-27T03:25:43.072Z,1010
2023-04-27T03:26:43.049Z,1009.98
2023-04-27T03:27:43.057Z,1009.95
2023-04-27T03:28:44.867Z,1009.92
2023-04-27T03:29:48.248Z,1009.91
2023-04-27T03:30:50.442Z,1009.9
2023-04-27T03:32:43.934Z,1009.87
2023-04-27T03:33:43.061Z,1009.88
2023-04-27T03:34:43.056Z,1009.84
2023-04-27T03:35:43.163Z,1009.84
2023-04-27T03:36:43.257Z,1009.83
2023-04-27T03:37:43.082Z,1009.81
2023-04-27T03:38:43.059Z,1009.86
2023-04-27T03:39:43.066Z,1009.83
2023-04-27T03:40:43.046Z,1009.81
2023-04-27T03:41:43.056Z,1009.81
2023-04-27T03:42:43.152Z,1009.82
2023-04-27T03:43:43.052Z,1009.82
2023-04-27T03:44:43.051Z,1009.86
2023-04-27T03:45:43.133Z,1009.82
2023-04-27T03:46:43.084Z,1009.81
2023-04-27T03:47:43.588Z,1009.83
2023-04-27T03:48:43.499Z,1009.81
2023-04-27T03:49:44.878Z,1009.83
2023-04-27T03:50:48.491Z,1009.83
2023-04-27T03:51:50.517Z,1009.83
2023-04-27T03:53:43.065Z,1009.9
2023-04-27T03:54:43.055Z,1009.94
2023-04-27T03:55:43.135Z,1009.91
2023-04-27T03:56:43.061Z,1009.93
2023-04-27T03:57:43.185Z,1009.93
2023-04-27T03:58:43.055Z,1009.98
2023-04-27T03:59:43.064Z,1009.99
2023-04-27T04:00:43.215Z,1010.01
2023-04-27T04:01:43.077Z,1010.01
2023-04-27T04:02:43.235Z,1010.01
2023-04-27T04:03:43.354Z,1010.01
2023-04-27T04:04:43.160Z,1010.03
2023-04-27T04:05:43.091Z,1010.04
2023-04-27T04:06:43.058Z,1010.06
2023-04-27T04:07:43.060Z,1010.02
2023-04-27T04:08:43.052Z,1010.02
2023-04-27T04:09:43.059Z,1009.99
2023-04-27T04:10:45.053Z,1009.98
2023-04-27T04:11:48.423Z,1009.98
2023-04-27T04:12:50.641Z,1010.04
2023-04-27T04:14:43.064Z,1010.12
2023-04-27T04:15:43.081Z,1010.12
2023-04-27T04:16:43.088Z,1010.12
2023-04-27T04:17:43.082Z,1010.17
2023-04-27T04:18:43.069Z,1010.17
2023-04-27T04:19:43.059Z,1010.23
2023-04-27T04:20:43.065Z,1010.21
2023-04-27T04:21:43.078Z,1010.22
2023-04-27T04:22:43.064Z,1010.22
2023-04-27T04:23:43.055Z,1010.22
2023-04-27T04:24:43.085Z,1010.2
2023-04-27T04:25:43.068Z,1010.17
2023-04-27T04:26:43.072Z,1010.17
2023-04-27T04:27:43.058Z,1010.21
2023-04-27T04:28:43.144Z,1010.21
2023-04-27T04:29:43.047Z,1010.2
2023-04-27T04:30:43.048Z,1010.2
2023-04-27T04:31:45.147Z,1010.29
2023-04-27T04:32:48.072Z,1010.32
2023-04-27T04:33:50.768Z,1010.31
2023-04-27T04:35:43.058Z,1010.34
2023-04-27T04:36:43.062Z,1010.39
2023-04-27T04:37:43.108Z,1010.39
2023-04-27T04:38:43.051Z,1010.41
2023-04-27T04:39:43.100Z,1010.39
2023-04-27T04:40:46.211Z,1010.4
2023-04-27T04:41:43.073Z,1010.35
2023-04-27T04:42:43.047Z,1010.39
2023-04-27T04:43:43.069Z,1010.39
2023-04-27T04:44:43.067Z,1010.44
2023-04-27T04:45:43.062Z,1010.44
2023-04-27T04:46:43.096Z,1010.48
2023-04-27T04:47:43.133Z,1010.42
2023-04-27T04:48:43.049Z,1010.43
2023-04-27T04:49:43.255Z,1010.39
2023-04-27T04:50:43.070Z,1010.4
2023-04-27T04:51:43.077Z,1010.4
2023-04-27T04:52:45.227Z,1010.41
2023-04-27T04:53:48.218Z,1010.4
2023-04-27T04:54:50.957Z,1010.4
2023-04-27T04:56:43.078Z,1010.45
2023-04-27T04:57:43.108Z,1010.49
2023-04-27T04:58:43.069Z,1010.49
2023-04-27T04:59:43.050Z,1010.51
2023-04-27T05:00:43.054Z,1010.46
2023-04-27T05:01:43.104Z,1010.46
2023-04-27T05:02:43.146Z,1010.46
2023-04-27T05:03:43.137Z,1010.41
2023-04-27T05:04:43.130Z,1010.45
2023-04-27T05:05:43.052Z,1010.43
2023-04-27T05:06:43.070Z,1010.43
2023-04-27T05:07:43.056Z,1010.45
2023-04-27T05:08:43.054Z,1010.45
2023-04-27T05:09:43.062Z,1010.45
2023-04-27T05:10:43.235Z,1010.45
2023-04-27T05:11:43.074Z,1010.45
2023-04-27T05:12:43.057Z,1010.39
2023-04-27T05:13:45.336Z,1010.39
2023-04-27T05:14:48.194Z,1010.45
2023-04-27T05:15:51.306Z,1010.45
2023-04-27T05:17:43.069Z,1010.46
2023-04-27T05:18:43.056Z,1010.46
2023-04-27T05:19:43.057Z,1010.42
2023-04-27T05:20:43.077Z,1010.45
2023-04-27T05:21:43.059Z,1010.45
2023-04-27T05:22:43.073Z,1010.45
2023-04-27T05:23:43.081Z,1010.51
2023-04-27T05:24:43.054Z,1010.51
2023-04-27T05:25:43.048Z,1010.51
2023-04-27T05:26:43.050Z,1010.51
2023-04-27T05:27:43.047Z,1010.51
2023-04-27T05:28:43.087Z,1010.53
2023-04-27T05:29:43.058Z,1010.58
2023-04-27T05:30:43.050Z,1010.59
2023-04-27T05:31:43.079Z,1010.58
2023-04-27T05:32:43.090Z,1010.62
2023-04-27T05:33:43.083Z,1010.6
2023-04-27T05:34:46.763Z,1010.59
2023-04-27T05:35:48.345Z,1010.59
2023-04-27T05:36:49.430Z,1010.62
2023-04-27T05:38:43.326Z,1010.63
2023-04-27T05:39:43.056Z,1010.63
2023-04-27T05:40:43.086Z,1010.68
2023-04-27T05:41:43.095Z,1010.63
2023-04-27T05:42:43.043Z,1010.65
2023-04-27T05:43:43.084Z,1010.66
2023-04-27T05:44:43.074Z,1010.68
2023-04-27T05:45:43.081Z,1010.69
2023-04-27T05:46:43.086Z,1010.66
2023-04-27T05:47:43.094Z,1010.7
2023-04-27T05:48:43.064Z,1010.71
2023-04-27T05:49:43.050Z,1010.67
2023-04-27T05:50:43.068Z,1010.68
2023-04-27T05:51:43.074Z,1010.66
2023-04-27T05:52:43.055Z,1010.67
2023-04-27T05:53:43.067Z,1010.64
2023-04-27T05:54:43.100Z,1010.68
2023-04-27T05:55:45.491Z,1010.69
2023-04-27T05:56:48.483Z,1010.68
2023-04-27T05:57:57.243Z,1010.65
2023-04-27T05:59:43.050Z,1010.63
2023-04-27T06:00:43.072Z,1010.62
2023-04-27T06:01:43.065Z,1010.58
2023-04-27T06:02:43.255Z,1010.63
2023-04-27T06:03:43.164Z,1010.6
2023-04-27T06:04:43.054Z,1010.63
2023-04-27T06:05:43.111Z,1010.65
2023-04-27T06:06:43.050Z,1010.63
2023-04-27T06:07:43.060Z,1010.64
2023-04-27T06:08:43.059Z,1010.68
2023-04-27T06:09:43.084Z,1010.66
2023-04-27T06:10:43.070Z,1010.68
2023-04-27T06:11:43.064Z,1010.66
2023-04-27T06:12:45.818Z,1010.61
2023-04-27T06:13:43.067Z,1010.67
2023-04-27T06:14:43.066Z,1010.66
2023-04-27T06:15:43.123Z,1010.67
2023-04-27T06:16:43.535Z,1010.67
2023-04-27T06:17:47.087Z,1010.69
2023-04-27T06:18:49.286Z,1010.66
2023-04-27T06:19:49.836Z,1010.57
2023-04-27T06:20:43.079Z,1010.63
2023-04-27T06:21:43.066Z,1010.6
2023-04-27T06:22:43.082Z,1010.55
2023-04-27T06:23:43.053Z,1010.58
2023-04-27T06:24:43.063Z,1010.59
2023-04-27T06:25:43.056Z,1010.57
2023-04-27T06:26:43.067Z,1010.6
2023-04-27T06:27:43.067Z,1010.6
2023-04-27T06:28:43.066Z,1010.6
2023-04-27T06:29:43.059Z,1010.58
2023-04-27T06:30:43.076Z,1010.56
2023-04-27T06:31:43.181Z,1010.57
2023-04-27T06:32:43.099Z,1010.56
2023-04-27T06:33:43.060Z,1010.57
2023-04-27T06:34:43.061Z,1010.57
2023-04-27T06:35:44.032Z,1010.59
2023-04-27T06:36:43.071Z,1010.59
2023-04-27T06:37:43.602Z,1010.64
2023-04-27T06:38:47.193Z,1010.64
2023-04-27T06:39:50.056Z,1010.66
2023-04-27T06:40:49.300Z,1010.66
2023-04-27T06:41:43.094Z,1010.63
2023-04-27T06:42:43.058Z,1010.57
2023-04-27T06:43:43.078Z,1010.61
2023-04-27T06:44:43.073Z,1010.65
2023-04-27T06:45:43.133Z,1010.67
2023-04-27T06:46:43.099Z,1010.64
2023-04-27T06:47:43.092Z,1010.68
2023-04-27T06:48:43.060Z,1010.69
2023-04-27T06:49:43.071Z,1010.69
2023-04-27T06:50:43.064Z,1010.71
2023-04-27T06:51:43.071Z,1010.79
2023-04-27T06:52:43.234Z,1010.69
2023-04-27T06:53:43.056Z,1010.71
2023-04-27T06:54:43.054Z,1010.7
2023-04-27T06:55:49.072Z,1010.69
2023-04-27T06:57:43.049Z,1010.67
2023-04-27T06:58:43.659Z,1010.67
2023-04-27T06:59:46.613Z,1010.71
2023-04-27T07:00:50.067Z,1010.68
2023-04-27T07:01:49.449Z,1010.64
2023-04-27T07:02:43.118Z,1010.64
2023-04-27T07:03:43.202Z,1010.64
2023-04-27T07:04:43.108Z,1010.59
2023-04-27T07:05:43.113Z,1010.61
2023-04-27T07:06:43.062Z,1010.58
2023-04-27T07:07:43.057Z,1010.59
2023-04-27T07:08:43.086Z,1010.61
2023-04-27T07:09:43.082Z,1010.61
2023-04-27T07:10:43.342Z,1010.57
2023-04-27T07:11:43.059Z,1010.57
2023-04-27T07:12:43.058Z,1010.56
2023-04-27T07:13:43.069Z,1010.55
2023-04-27T07:14:43.083Z,1010.57
2023-04-27T07:15:43.138Z,1010.5
2023-04-27T07:16:43.074Z,1010.58
2023-04-27T07:17:43.057Z,1010.58
2023-04-27T07:18:46.056Z,1010.54
2023-04-27T07:20:47.224Z,1010.53
2023-04-27T07:21:50.186Z,1010.51
2023-04-27T07:22:49.562Z,1010.53
2023-04-27T07:23:43.090Z,1010.55
2023-04-27T07:24:43.337Z,1010.54
2023-04-27T07:25:43.068Z,1010.53
2023-04-27T07:26:43.056Z,1010.55
2023-04-27T07:27:43.066Z,1010.54
2023-04-27T07:28:43.062Z,1010.51
2023-04-27T07:29:43.061Z,1010.53
2023-04-27T07:30:43.081Z,1010.48
2023-04-27T07:31:43.124Z,1010.47
2023-04-27T07:32:43.061Z,1010.51
2023-04-27T07:33:43.073Z,1010.5
2023-04-27T07:34:53.876Z,1010.44
2023-04-27T07:36:43.056Z,1010.43
2023-04-27T07:37:43.058Z,1010.42
2023-04-27T07:38:43.054Z,1010.46
2023-04-27T07:39:43.058Z,1010.4
2023-04-27T07:40:45.865Z,1010.37
2023-04-27T07:41:47.368Z,1010.37
2023-04-27T07:42:50.431Z,1010.37
2023-04-27T07:43:49.904Z,1010.36
2023-04-27T07:44:43.078Z,1010.36
2023-04-27T07:45:43.242Z,1010.38
2023-04-27T07:46:43.047Z,1010.37
2023-04-27T07:47:43.084Z,1010.38
2023-04-27T07:48:43.196Z,1010.35
2023-04-27T07:49:43.052Z,1010.35
2023-04-27T07:50:43.049Z,1010.32
2023-04-27T07:51:43.119Z,1010.33
2023-04-27T07:52:43.064Z,1010.33
2023-04-27T07:53:43.082Z,1010.35
2023-04-27T07:54:43.055Z,1010.34
2023-04-27T07:55:43.069Z,1010.3
2023-04-27T07:56:43.077Z,1010.3
2023-04-27T07:57:43.071Z,1010.37
2023-04-27T07:58:43.074Z,1010.34
2023-04-27T07:59:43.056Z,1010.35
2023-04-27T08:00:43.047Z,1010.37
2023-04-27T08:01:44.074Z,1010.29
2023-04-27T08:02:47.593Z,1010.27
2023-04-27T08:03:49.998Z,1010.31
2023-04-27T08:04:50.202Z,1010.27
2023-04-27T08:05:43.267Z,1010.32
2023-04-27T08:06:44.630Z,1010.3
2023-04-27T08:07:46.116Z,1010.29
2023-04-27T08:09:43.059Z,1010.28
2023-04-27T08:10:43.060Z,1010.26
2023-04-27T08:11:43.075Z,1010.23
2023-04-27T08:12:43.079Z,1010.29
2023-04-27T08:13:43.051Z,1010.27
2023-04-27T08:14:43.065Z,1010.28
2023-04-27T08:15:43.146Z,1010.26
2023-04-27T08:16:43.169Z,1010.29
2023-04-27T08:17:43.046Z,1010.25
2023-04-27T08:18:43.058Z,1010.24
2023-04-27T08:19:43.072Z,1010.22
2023-04-27T08:20:43.057Z,1010.26
2023-04-27T08:21:43.096Z,1010.32
2023-04-27T08:22:44.087Z,1010.27
2023-04-27T08:23:47.606Z,1010.3
2023-04-27T08:24:49.862Z,1010.27
2023-04-27T08:25:50.875Z,1010.34
2023-04-27T08:26:43.086Z,1010.34
2023-04-27T08:27:43.062Z,1010.34
2023-04-27T08:28:43.058Z,1010.41
2023-04-27T08:29:43.055Z,1010.37
2023-04-27T08:30:43.075Z,1010.44
2023-04-27T08:31:43.128Z,1010.42
2023-04-27T08:32:43.108Z,1010.45
2023-04-27T08:33:43.059Z,1010.43
2023-04-27T08:34:43.052Z,1010.41
2023-04-27T08:35:43.070Z,1010.35
2023-04-27T08:36:43.137Z,1010.36
2023-04-27T08:37:43.234Z,1010.42
2023-04-27T08:38:43.045Z,1010.34
2023-04-27T08:39:43.049Z,1010.34
2023-04-27T08:40:43.123Z,1010.31
2023-04-27T08:41:43.056Z,1010.24
2023-04-27T08:42:43.053Z,1010.35
2023-04-27T08:43:44.201Z,1010.32
2023-04-27T08:44:47.741Z,1010.37
2023-04-27T08:45:49.991Z,1010.38
2023-04-27T08:46:50.133Z,1010.32
2023-04-27T08:47:53.020Z,1010.35
2023-04-27T08:49:43.068Z,1010.33
2023-04-27T08:50:43.077Z,1010.33
2023-04-27T08:51:43.064Z,1010.3
2023-04-27T08:52:43.059Z,1010.3
2023-04-27T08:53:43.061Z,1010.25
2023-04-27T08:54:43.058Z,1010.26
2023-04-27T08:55:43.066Z,1010.25
2023-04-27T08:56:43.100Z,1010.26
2023-04-27T08:57:43.053Z,1010.29
2023-04-27T08:58:43.073Z,1010.28
2023-04-27T08:59:43.090Z,1010.25
2023-04-27T09:00:43.088Z,1010.23
2023-04-27T09:01:43.088Z,1010.22
2023-04-27T09:02:43.110Z,1010.22
2023-04-27T09:03:43.142Z,1010.2
2023-04-27T09:04:43.102Z,1010.12
2023-04-27T09:06:04.152Z,1010.1
2023-04-27T09:07:49.367Z,1010.19
2023-04-27T09:09:43.067Z,1010.22
2023-04-27T09:10:43.081Z,1010.19
2023-04-27T09:11:43.060Z,1010.13
2023-04-27T09:12:43.076Z,1010.16
2023-04-27T09:13:43.066Z,1010.17
2023-04-27T09:14:43.066Z,1010.17
2023-04-27T09:15:43.053Z,1010.21
2023-04-27T09:16:43.176Z,1010.14
2023-04-27T09:17:43.110Z,1010.12
2023-04-27T09:18:43.062Z,1010.21
2023-04-27T09:19:43.069Z,1010.16
2023-04-27T09:20:43.060Z,1010.13
2023-04-27T09:21:43.056Z,1010.2
2023-04-27T09:22:43.067Z,1010.2
2023-04-27T09:23:43.059Z,1010.2
2023-04-27T09:24:43.064Z,1010.23
2023-04-27T09:25:43.060Z,1010.22
2023-04-27T09:26:44.540Z,1010.25
2023-04-27T09:27:47.641Z,1010.28
2023-04-27T09:28:48.314Z,1010.24
2023-04-27T09:30:43.060Z,1010.28
2023-04-27T09:31:43.100Z,1010.27
2023-04-27T09:32:43.126Z,1010.22
2023-04-27T09:33:43.057Z,1010.21
2023-04-27T09:34:43.057Z,1010.21
2023-04-27T09:35:43.059Z,1010.15
2023-04-27T09:36:43.064Z,1010.2
2023-04-27T09:37:43.091Z,1010.2
2023-04-27T09:38:43.061Z,1010.19
2023-04-27T09:39:43.059Z,1010.12
2023-04-27T09:40:43.061Z,1010.18
2023-04-27T09:41:43.052Z,1010.1
2023-04-27T09:42:43.080Z,1010.06
2023-04-27T09:43:43.058Z,1010.09
2023-04-27T09:44:43.072Z,1010.08
2023-04-27T09:45:43.078Z,1010.11
2023-04-27T09:46:43.058Z,1010.04
2023-04-27T09:47:44.648Z,1009.97
2023-04-27T09:48:48.188Z,1010
2023-04-27T09:49:50.346Z,1009.99
2023-04-27T09:51:43.118Z,1009.91
2023-04-27T09:52:43.056Z,1009.94
2023-04-27T09:53:43.051Z,1009.93
2023-04-27T09:54:43.073Z,1009.92
2023-04-27T09:55:43.060Z,1009.84
2023-04-27T09:56:43.065Z,1009.87
2023-04-27T09:57:43.060Z,1009.82
2023-04-27T09:58:43.054Z,1009.81
2023-04-27T09:59:43.065Z,1009.83
2023-04-27T10:00:43.060Z,1009.8
2023-04-27T10:01:43.186Z,1009.82
2023-04-27T10:02:53.473Z,1009.77
2023-04-27T10:04:43.117Z,1009.77
2023-04-27T10:05:43.071Z,1009.81
2023-04-27T10:06:43.086Z,1009.79
2023-04-27T10:07:43.061Z,1009.76
2023-04-27T10:08:44.716Z,1009.7
2023-04-27T10:09:48.213Z,1009.66
2023-04-27T10:10:50.432Z,1009.65
2023-04-27T10:12:43.112Z,1009.69
2023-04-27T10:13:43.067Z,1009.7
2023-04-27T10:14:43.051Z,1009.69
2023-04-27T10:15:43.140Z,1009.69
2023-04-27T10:16:43.056Z,1009.68
2023-04-27T10:17:43.085Z,1009.67
2023-04-27T10:18:43.061Z,1009.65
2023-04-27T10:19:43.063Z,1009.69
2023-04-27T10:20:43.062Z,1009.64
2023-04-27T10:21:43.073Z,1009.61
2023-04-27T10:22:43.055Z,1009.62
2023-04-27T10:23:43.059Z,1009.65
2023-04-27T10:24:43.054Z,1009.63
2023-04-27T10:25:43.052Z,1009.65
2023-04-27T10:26:43.055Z,1009.63
2023-04-27T10:27:43.070Z,1009.62
2023-04-27T10:28:43.056Z,1009.64
2023-04-27T10:29:44.790Z,1009.61
2023-04-27T10:30:48.253Z,1009.62
2023-04-27T10:31:50.440Z,1009.57
2023-04-27T10:33:43.201Z,1009.57
2023-04-27T10:34:43.060Z,1009.57
2023-04-27T10:35:43.057Z,1009.58
2023-04-27T10:36:43.154Z,1009.58
2023-04-27T10:37:43.228Z,1009.57
2023-04-27T10:38:43.105Z,1009.56
2023-04-27T10:39:50.151Z,1009.57
2023-04-27T10:41:43.076Z,1009.53
2023-04-27T10:42:43.066Z,1009.55
2023-04-27T10:43:43.072Z,1009.53
2023-04-27T10:44:43.062Z,1009.53
2023-04-27T10:45:43.055Z,1009.5
2023-04-27T10:46:43.184Z,1009.48
2023-04-27T10:47:43.067Z,1009.5
2023-04-27T10:48:43.056Z,1009.46
2023-04-27T10:49:43.055Z,1009.46
2023-04-27T10:50:44.941Z,1009.44
2023-04-27T10:51:48.441Z,1009.45
2023-04-27T10:52:50.595Z,1009.44
2023-04-27T10:54:43.067Z,1009.4
2023-04-27T10:55:43.091Z,1009.39
2023-04-27T10:56:43.070Z,1009.39
2023-04-27T10:57:43.128Z,1009.39
2023-04-27T10:58:49.579Z,1009.37
2023-04-27T11:00:43.070Z,1009.41
2023-04-27T11:01:43.134Z,1009.4
2023-04-27T11:02:44.118Z,1009.38
2023-04-27T11:03:43.134Z,1009.31
2023-04-27T11:04:43.079Z,1009.29
2023-04-27T11:05:43.076Z,1009.29
2023-04-27T11:06:43.092Z,1009.29
2023-04-27T11:07:43.063Z,1009.25
2023-04-27T11:08:43.057Z,1009.26
2023-04-27T11:09:43.106Z,1009.22
2023-04-27T11:10:43.095Z,1009.18
2023-04-27T11:11:45.042Z,1009.21
2023-04-27T11:12:47.978Z,1009.23
2023-04-27T11:13:50.194Z,1009.21
2023-04-27T11:15:43.076Z,1009.21
2023-04-27T11:16:43.103Z,1009.21
2023-04-27T11:17:43.078Z,1009.22
2023-04-27T11:18:43.100Z,1009.18
2023-04-27T11:19:43.068Z,1009.14
2023-04-27T11:20:43.051Z,1009.18
2023-04-27T11:21:43.174Z,1009.1
2023-04-27T11:22:43.090Z,1009.09
2023-04-27T11:23:43.316Z,1009.04
2023-04-27T11:24:43.052Z,1009.04
2023-04-27T11:25:43.452Z,1009.05
2023-04-27T11:26:43.266Z,1009.05
2023-04-27T11:27:43.068Z,1009.03
2023-04-27T11:28:43.080Z,1009.03
2023-04-27T11:29:43.141Z,1008.95
2023-04-27T11:30:43.068Z,1009.02
2023-04-27T11:31:43.156Z,1009.02
2023-04-27T11:32:45.123Z,1009.05
2023-04-27T11:33:48.116Z,1009.04
2023-04-27T11:34:50.761Z,1009.04
2023-04-27T11:36:43.063Z,1009
2023-04-27T11:37:43.062Z,1008.98
2023-04-27T11:38:43.102Z,1009.04
2023-04-27T11:39:43.065Z,1009.02
2023-04-27T11:40:43.050Z,1009.05
2023-04-27T11:41:43.071Z,1009.09
2023-04-27T11:42:43.055Z,1009.1
2023-04-27T11:43:43.080Z,1009.15
2023-04-27T11:44:43.051Z,1009.17
2023-04-27T11:45:43.054Z,1009.15
2023-04-27T11:46:43.111Z,1009.17
2023-04-27T11:47:43.084Z,1009.06
2023-04-27T11:48:43.149Z,1009.13
2023-04-27T11:49:43.079Z,1009.12
2023-04-27T11:50:43.255Z,1009.09
2023-04-27T11:51:43.050Z,1009.04
2023-04-27T11:52:43.066Z,1009.02
2023-04-27T11:53:43.065Z,1009.03
2023-04-27T11:54:45.117Z,1009.06
2023-04-27T11:55:48.271Z,1009.05
2023-04-27T11:56:49.207Z,1009.02
2023-04-27T11:58:45.083Z,1009.01
2023-04-27T11:59:43.113Z,1008.99
2023-04-27T12:00:43.080Z,1008.99
2023-04-27T12:01:43.063Z,1009.01
2023-04-27T12:02:43.299Z,1008.98
2023-04-27T12:03:43.122Z,1009.01
2023-04-27T12:04:43.252Z,1009.01
2023-04-27T12:05:43.072Z,1008.98
2023-04-27T12:06:43.055Z,1008.95
2023-04-27T12:07:43.069Z,1008.99
2023-04-27T12:08:43.060Z,1009.07
2023-04-27T12:09:43.061Z,1009.03
2023-04-27T12:10:43.236Z,1009.02
2023-04-27T12:11:43.059Z,1009
2023-04-27T12:12:43.067Z,1009.05
2023-04-27T12:13:43.382Z,1009.05
2023-04-27T12:14:43.052Z,1009.02
2023-04-27T12:15:45.484Z,1009.02
2023-04-27T12:16:48.299Z,1008.99
2023-04-27T12:17:49.300Z,1008.98
2023-04-27T12:19:43.053Z,1008.88
2023-04-27T12:20:43.069Z,1008.91
2023-04-27T12:21:43.064Z,1008.95
2023-04-27T12:22:43.075Z,1008.97
2023-04-27T12:23:43.066Z,1008.95
2023-04-27T12:24:43.055Z,1008.91
2023-04-27T12:25:43.061Z,1008.86
2023-04-27T12:26:43.057Z,1008.9
2023-04-27T12:27:43.152Z,1008.88
2023-04-27T12:28:43.064Z,1008.86
2023-04-27T12:29:43.372Z,1008.85
2023-04-27T12:30:43.109Z,1008.89
2023-04-27T12:31:43.067Z,1008.86
2023-04-27T12:32:43.066Z,1008.88
2023-04-27T12:33:43.059Z,1008.82
2023-04-27T12:34:43.061Z,1008.78
2023-04-27T12:35:43.383Z,1008.79
2023-04-27T12:36:45.567Z,1008.78
2023-04-27T12:37:48.444Z,1008.79
2023-04-27T12:38:50.229Z,1008.77